Time;durP1;ratioP1;P1;durP2;ratioP2;P2;SDS_P1;SDS_P2;PMS_P1;PMS_P2;Temp;Humidity;BMP_temperature;BMP_pressure;BME280_temperature;BME280_humidity;BME280_pressure;Samples;Min_cycle;Max_cycle;Signal;HPM_P1;HPM_P2
2022/04/02 00:02:13;;;;;;;9.10;5.50;;;;;;;0.11;80.71;98852.95;130229;1268;107876;-70
2022/04/02 00:05:15;;;;;;;12.00;6.20;;;;;;;0.01;80.15;98850.54;130356;1268;98878;-70
2022/04/02 00:08:18;;;;;;;9.20;5.70;;;;;;;-0.02;80.92;98853.76;130315;1267;98721;-70
2022/04/02 00:11:21;;;;;;;11.30;5.90;;;;;;;-0.02;80.17;98846.45;130172;1268;99146;-69
2022/04/02 00:14:24;;;;;;;9.20;4.90;;;;;;;0.02;79.90;98845.90;130383;1268;99041;-70
2022/04/02 00:17:26;;;;;;;8.10;5.10;;;;;;;0.08;80.79;98846.16;130226;1266;99687;-70
2022/04/02 00:20:30;;;;;;;8.10;5.40;;;;;;;0.10;80.30;98844.94;130210;1268;97975;-70
2022/04/02 00:23:43;;;;;;;10.30;6.80;;;;;;;0.12;80.13;98843.41;129860;1268;525934;-72
2022/04/02 00:26:47;;;;;;;9.60;5.90;;;;;;;0.14;79.78;98843.77;130365;1268;108644;-71
2022/04/02 00:29:50;;;;;;;10.50;6.20;;;;;;;0.12;79.92;98842.34;130369;1268;108616;-70
2022/04/02 00:32:53;;;;;;;10.50;5.60;;;;;;;0.08;80.22;98841.42;130360;1266;99677;-70
2022/04/02 00:35:56;;;;;;;14.30;6.40;;;;;;;0.07;79.88;98839.30;130336;1268;108707;-69
2022/04/02 00:38:59;;;;;;;8.00;5.00;;;;;;;0.08;80.62;98839.20;130109;1268;97983;-70
2022/04/02 00:42:04;;;;;;;9.90;5.50;;;;;;;0.09;79.91;98835.27;130386;1268;108909;-71
2022/04/02 00:45:08;;;;;;;9.80;5.70;;;;;;;0.14;80.12;98839.40;130226;1268;108650;-72
2022/04/02 00:48:11;;;;;;;10.90;5.40;;;;;;;0.12;79.87;98837.98;130450;1268;108634;-72
2022/04/02 00:51:16;;;;;;;11.60;6.40;;;;;;;0.11;79.79;98837.52;130526;1268;108679;-72
2022/04/02 00:54:21;;;;;;;8.10;5.10;;;;;;;0.12;79.54;98836.77;130488;1266;108887;-71
2022/04/02 00:57:24;;;;;;;9.10;5.00;;;;;;;0.08;81.01;98830.79;130475;1267;107256;-72
2022/04/02 01:00:27;;;;;;;8.60;5.30;;;;;;;0.07;80.21;98834.05;130474;1268;108764;-72
2022/04/02 01:03:30;;;;;;;8.60;5.00;;;;;;;0.07;80.87;98829.66;130212;1268;98235;-71
2022/04/02 01:06:35;;;;;;;9.40;5.70;;;;;;;0.06;80.55;98832.83;130475;1266;108784;-72
2022/04/02 01:09:39;;;;;;;12.00;6.20;;;;;;;0.05;80.45;98839.27;130132;1268;108612;-71
2022/04/02 01:12:45;;;;;;;8.50;5.60;;;;;;;-0.01;80.68;98838.45;130342;1268;108665;-71
2022/04/02 01:15:49;;;;;;;7.80;4.80;;;;;;;-0.04;81.21;98838.73;130128;1268;108711;-71
2022/04/02 01:18:52;;;;;;;10.20;6.30;;;;;;;0.02;80.66;98835.46;130666;1267;108715;-70
2022/04/02 01:21:59;;;;;;;10.40;6.30;;;;;;;0.03;80.89;98837.34;130409;1268;108742;-70
2022/04/02 01:25:12;;;;;;;8.90;6.10;;;;;;;-0.04;80.67;98831.85;130197;1268;108650;-72
2022/04/02 01:28:20;;;;;;;9.60;6.40;;;;;;;-0.05;80.67;98837.88;130714;1268;108848;-72
2022/04/02 01:31:25;;;;;;;8.70;6.50;;;;;;;-0.10;81.12;98840.91;130370;1268;108830;-72
2022/04/02 01:34:29;;;;;;;10.70;6.40;;;;;;;-0.11;81.03;98835.42;130549;1268;108750;-71
2022/04/02 01:37:34;;;;;;;7.60;4.60;;;;;;;-0.09;81.32;98840.13;130410;1268;108666;-71
2022/04/02 01:40:39;;;;;;;8.00;5.10;;;;;;;-0.04;80.86;98839.25;130341;1268;108856;-68
2022/04/02 01:43:43;;;;;;;10.80;5.60;;;;;;;0.02;80.35;98840.20;130099;1268;107830;-67
2022/04/02 01:46:46;;;;;;;6.70;4.70;;;;;;;0.04;80.44;98846.14;130283;1268;108664;-70
2022/04/02 01:49:50;;;;;;;8.60;5.20;;;;;;;0.02;80.45;98844.90;130199;1268;98747;-71
2022/04/02 01:52:53;;;;;;;7.70;5.50;;;;;;;-0.00;80.11;98847.86;130214;1268;107020;-71
2022/04/02 01:55:56;;;;;;;7.30;5.10;;;;;;;-0.05;80.49;98855.54;130442;1267;108674;-71
2022/04/02 01:59:15;;;;;;;6.20;4.30;;;;;;;-0.12;80.44;98853.35;130489;1268;108712;-70
2022/04/02 02:02:20;;;;;;;7.80;5.00;;;;;;;-0.13;80.86;98851.96;130474;1268;108627;-70
2022/04/02 02:05:23;;;;;;;17.10;11.30;;;;;;;-0.16;81.13;98852.59;130262;1268;108763;-71
2022/04/02 02:08:27;;;;;;;10.40;5.30;;;;;;;-0.21;80.98;98852.11;130461;1268;108651;-71
2022/04/02 02:11:38;;;;;;;7.10;4.60;;;;;;;-0.27;80.57;98850.64;130463;1268;108650;-72
2022/04/02 02:14:50;;;;;;;8.40;5.00;;;;;;;-0.29;81.04;98853.09;130262;1268;108765;-70
2022/04/02 02:17:55;;;;;;;6.30;4.10;;;;;;;-0.31;80.94;98852.92;130375;1268;108662;-71
2022/04/02 02:20:59;;;;;;;6.80;4.30;;;;;;;-0.32;80.61;98849.65;130152;1268;108671;-71
2022/04/02 02:24:02;;;;;;;7.90;5.10;;;;;;;-0.33;80.78;98847.77;130361;1268;108695;-69
2022/04/02 02:27:07;;;;;;;6.90;4.30;;;;;;;-0.32;80.22;98850.16;130582;1266;108700;-70
2022/04/02 02:30:12;;;;;;;7.90;4.10;;;;;;;-0.27;79.99;98851.02;130422;1268;108683;-71
2022/04/02 02:36:36;;;;;;;6.30;4.00;;;;;;;-0.33;79.77;98849.70;130193;1267;108685;-70
2022/04/02 02:39:45;;;;;;;6.70;3.90;;;;;;;-0.30;80.55;98855.61;130332;1268;109043;-70
2022/04/02 02:42:57;;;;;;;8.00;4.00;;;;;;;-0.28;80.81;98856.70;130622;1268;108672;-70
2022/04/02 02:46:06;;;;;;;8.00;4.30;;;;;;;-0.22;80.70;98858.98;130526;1268;108694;-70
2022/04/02 02:49:09;;;;;;;7.60;4.20;;;;;;;-0.23;80.37;98863.10;130554;1268;97956;-71
2022/04/02 02:52:12;;;;;;;8.80;4.20;;;;;;;-0.23;80.26;98859.92;130624;1268;108669;-72
2022/04/02 02:55:15;;;;;;;9.80;4.30;;;;;;;-0.30;80.18;98862.40;130637;1268;98576;-71
2022/04/02 02:58:18;;;;;;;7.10;4.80;;;;;;;-0.35;79.92;98863.30;130576;1268;98718;-70
2022/04/02 03:01:21;;;;;;;5.30;3.40;;;;;;;-0.33;79.91;98862.80;130397;1268;97992;-69
2022/04/02 03:04:26;;;;;;;6.60;4.10;;;;;;;-0.33;80.09;98862.11;130324;1268;108576;-69
2022/04/02 03:07:37;;;;;;;8.30;4.50;;;;;;;-0.27;80.03;98860.78;130355;1268;108679;-70
2022/04/02 03:10:40;;;;;;;9.40;5.00;;;;;;;-0.30;80.06;98864.30;130204;1268;108795;-69
2022/04/02 03:13:44;;;;;;;7.20;4.10;;;;;;;-0.29;79.92;98868.27;130300;1268;98732;-71
2022/04/02 03:16:48;;;;;;;9.20;5.10;;;;;;;-0.29;79.62;98871.44;130613;1268;108742;-71
2022/04/02 03:19:53;;;;;;;7.20;4.50;;;;;;;-0.34;79.70;98869.34;130349;1268;108538;-71
2022/04/02 03:22:56;;;;;;;7.30;4.30;;;;;;;-0.35;80.17;98866.84;130363;1268;98042;-71
2022/04/02 03:25:59;;;;;;;8.20;4.50;;;;;;;-0.35;79.62;98869.41;130632;1268;99117;-71
2022/04/02 03:29:02;;;;;;;8.10;4.40;;;;;;;-0.35;80.24;98867.86;130165;1268;98030;-71
2022/04/02 03:32:07;;;;;;;7.40;4.40;;;;;;;-0.39;80.25;98868.86;130400;1268;109165;-70
2022/04/02 03:35:14;;;;;;;5.70;3.80;;;;;;;-0.48;80.36;98871.95;130247;1268;106908;-72
2022/04/02 03:38:17;;;;;;;6.20;4.00;;;;;;;-0.50;80.27;98868.10;130614;1266;108644;-72
2022/04/02 03:41:23;;;;;;;7.00;4.30;;;;;;;-0.50;80.10;98870.91;130657;1268;108662;-71
2022/04/02 03:44:26;;;;;;;8.90;4.80;;;;;;;-0.47;79.80;98871.01;130659;1268;108673;-74
2022/04/02 03:47:30;;;;;;;10.20;5.00;;;;;;;-0.42;80.54;98875.21;130647;1268;98591;-76
2022/04/02 03:50:33;;;;;;;11.80;5.40;;;;;;;-0.43;80.47;98873.38;130242;1268;109689;-74
2022/04/02 03:53:36;;;;;;;10.50;4.40;;;;;;;-0.44;80.58;98878.30;130529;1268;108493;-74
2022/04/02 03:56:39;;;;;;;8.70;5.10;;;;;;;-0.47;80.65;98875.45;130565;1268;109140;-73
2022/04/02 03:59:46;;;;;;;9.10;5.30;;;;;;;-0.54;81.19;98882.09;130504;1268;108676;-73
2022/04/02 04:02:51;;;;;;;8.50;5.30;;;;;;;-0.58;80.78;98886.92;130586;1268;108689;-71
2022/04/02 04:06:01;;;;;;;8.40;5.00;;;;;;;-0.58;80.64;98883.79;130544;1268;107678;-70
2022/04/02 04:09:05;;;;;;;7.70;4.70;;;;;;;-0.55;80.88;98886.88;130377;1268;108818;-70
2022/04/02 04:12:10;;;;;;;8.60;5.10;;;;;;;-0.52;80.78;98887.30;130295;1268;107578;-70
2022/04/02 04:15:16;;;;;;;7.60;4.90;;;;;;;-0.51;80.64;98893.14;130309;1268;108741;-69
2022/04/02 04:18:19;;;;;;;8.40;5.20;;;;;;;-0.55;80.85;98893.15;130123;1268;108658;-68
2022/04/02 04:21:24;;;;;;;12.70;6.50;;;;;;;-0.60;80.23;98894.21;130118;1268;99232;-69
2022/04/02 04:24:30;;;;;;;12.00;6.80;;;;;;;-0.59;80.28;98897.64;130296;1267;108652;-69
2022/04/02 04:27:33;;;;;;;12.70;6.00;;;;;;;-0.60;80.18;98897.31;130084;1268;108703;-68
2022/04/02 04:30:36;;;;;;;10.60;6.40;;;;;;;-0.61;81.18;98898.33;130346;1268;108864;-69
2022/04/02 04:33:39;;;;;;;10.70;5.90;;;;;;;-0.62;81.09;98903.40;130373;1268;99056;-70
2022/04/02 04:36:42;;;;;;;9.40;5.50;;;;;;;-0.65;81.18;98909.41;130352;1268;99170;-70
2022/04/02 04:39:44;;;;;;;8.20;5.20;;;;;;;-0.66;81.23;98905.48;130554;1267;97960;-76
2022/04/02 04:42:48;;;;;;;7.60;4.60;;;;;;;-0.64;80.89;98908.69;130683;1267;98491;-72
2022/04/02 04:45:53;;;;;;;8.90;5.30;;;;;;;-0.69;80.62;98911.86;130624;1268;108667;-74
2022/04/02 04:48:58;;;;;;;9.20;4.80;;;;;;;-0.72;80.89;98913.97;130640;1268;108769;-74
2022/04/02 04:52:03;;;;;;;8.80;4.40;;;;;;;-0.75;80.80;98915.40;130646;1268;108663;-74
2022/04/02 04:55:08;;;;;;;9.50;5.50;;;;;;;-0.70;80.25;98920.61;130873;1268;108655;-74
2022/04/02 04:58:11;;;;;;;10.20;5.50;;;;;;;-0.69;80.61;98918.47;130735;1268;108807;-72
2022/04/02 05:01:15;;;;;;;9.60;5.70;;;;;;;-0.67;81.17;98920.80;130717;1268;99035;-76
2022/04/02 05:04:17;;;;;;;9.20;5.10;;;;;;;-0.71;80.95;98921.38;130702;1268;108818;-75
2022/04/02 05:07:25;;;;;;;12.20;6.50;;;;;;;-0.73;81.41;98925.04;130629;1268;108657;-75
2022/04/02 05:10:31;;;;;;;11.30;5.50;;;;;;;-0.77;81.33;98923.60;130364;1268;108760;-71
2022/04/02 05:13:35;;;;;;;11.40;5.30;;;;;;;-0.73;81.00;98924.73;130408;1267;108680;-70
2022/04/02 05:16:38;;;;;;;8.70;5.20;;;;;;;-0.67;81.42;98931.58;130427;1268;109012;-70
2022/04/02 05:19:45;;;;;;;10.70;5.40;;;;;;;-0.66;80.54;98925.58;130192;1267;109537;-71
2022/04/02 05:22:49;;;;;;;11.20;5.80;;;;;;;-0.59;80.82;98926.98;130119;1268;108736;-70
2022/04/02 05:25:52;;;;;;;9.40;5.50;;;;;;;-0.58;80.43;98931.95;130447;1266;108654;-69
2022/04/02 05:28:57;;;;;;;10.00;5.10;;;;;;;-0.62;80.31;98929.62;130215;1268;108684;-69
2022/04/02 05:32:00;;;;;;;10.90;6.10;;;;;;;-0.60;80.42;98926.70;130262;1268;110544;-70
2022/04/02 05:35:04;;;;;;;9.90;5.30;;;;;;;-0.50;80.14;98934.02;130214;1268;99051;-71
2022/04/02 05:38:07;;;;;;;9.60;4.90;;;;;;;-0.44;80.05;98931.92;130325;1268;108680;-71
2022/04/02 05:41:11;;;;;;;8.90;4.60;;;;;;;-0.41;79.74;98933.46;130495;1268;99244;-71
2022/04/02 05:44:15;;;;;;;17.30;8.80;;;;;;;-0.32;79.60;98936.60;130503;1268;108698;-71
2022/04/02 05:47:19;;;;;;;9.80;6.10;;;;;;;-0.28;79.62;98941.40;130726;1266;108817;-70
2022/04/02 05:50:24;;;;;;;12.90;7.10;;;;;;;-0.23;79.59;98943.48;130426;1268;98713;-72
2022/04/02 05:53:26;;;;;;;10.20;5.10;;;;;;;-0.25;79.29;98948.21;130530;1268;109563;-72
2022/04/02 05:56:29;;;;;;;7.40;4.50;;;;;;;-0.29;79.50;98956.17;130597;1268;98281;-73
2022/04/02 05:59:33;;;;;;;9.20;4.80;;;;;;;-0.27;79.10;98961.63;130519;1268;97953;-71
2022/04/02 06:02:37;;;;;;;7.60;4.90;;;;;;;-0.23;79.10;98964.61;130277;1268;106853;-74
2022/04/02 06:05:40;;;;;;;9.70;4.40;;;;;;;-0.19;79.11;98962.89;130662;1268;108673;-70
2022/04/02 06:08:43;;;;;;;7.60;4.70;;;;;;;-0.15;78.82;98966.33;130419;1267;108781;-72
2022/04/02 06:11:46;;;;;;;10.80;6.00;;;;;;;-0.13;78.68;98964.42;130346;1268;99158;-69
2022/04/02 06:14:49;;;;;;;14.20;7.60;;;;;;;-0.05;78.55;98969.71;130408;1268;98515;-74
2022/04/02 06:17:52;;;;;;;15.50;7.70;;;;;;;0.04;78.24;98970.28;130546;1268;98067;-72
2022/04/02 06:20:54;;;;;;;10.30;4.60;;;;;;;0.14;78.18;98968.77;130521;1268;97954;-71
2022/04/02 06:23:58;;;;;;;8.90;4.90;;;;;;;0.22;78.20;98968.38;130303;1268;99035;-68
2022/04/02 06:27:00;;;;;;;8.10;4.60;;;;;;;0.34;78.23;98963.03;130369;1268;98767;-70
2022/04/02 06:30:04;;;;;;;8.10;4.50;;;;;;;0.46;77.91;98960.69;130482;1268;98087;-72
2022/04/02 06:33:07;;;;;;;9.10;5.10;;;;;;;0.55;77.61;98964.38;130470;1268;99241;-74
2022/04/02 06:36:10;;;;;;;7.20;5.20;;;;;;;0.57;77.12;98962.25;130428;1268;97982;-74
2022/04/02 06:39:13;;;;;;;8.00;5.00;;;;;;;0.52;77.47;98964.29;130353;1268;99146;-72
2022/04/02 06:42:15;;;;;;;7.80;5.10;;;;;;;0.51;77.48;98966.60;130500;1268;97977;-73
2022/04/02 06:45:20;;;;;;;9.10;5.00;;;;;;;0.53;77.66;98964.91;130658;1268;107616;-76
2022/04/02 06:48:23;;;;;;;7.40;4.60;;;;;;;0.60;77.18;98970.46;130342;1268;98481;-76
2022/04/02 06:51:26;;;;;;;9.70;6.40;;;;;;;0.59;77.06;98974.20;130568;1268;97977;-76
2022/04/02 06:54:29;;;;;;;11.90;7.50;;;;;;;0.64;77.48;98975.56;130638;1268;99137;-74
2022/04/02 06:57:32;;;;;;;11.80;6.80;;;;;;;0.82;77.33;98979.09;130541;1268;98470;-73
2022/04/02 07:00:35;;;;;;;11.90;7.20;;;;;;;0.95;76.93;98978.89;130270;1267;99489;-70
2022/04/02 07:03:38;;;;;;;10.40;6.30;;;;;;;1.09;76.86;98981.45;130360;1267;98171;-72
2022/04/02 07:06:44;;;;;;;8.60;5.80;;;;;;;1.12;76.05;98983.83;130704;1268;99177;-72
2022/04/02 07:09:46;;;;;;;13.90;7.80;;;;;;;1.08;75.76;98987.79;130558;1268;108811;-72
2022/04/02 07:12:49;;;;;;;13.60;8.10;;;;;;;0.90;76.14;98988.23;130686;1266;98610;-70
2022/04/02 07:15:52;;;;;;;12.30;7.20;;;;;;;0.86;76.68;98989.58;130346;1268;98007;-73
2022/04/02 07:18:57;;;;;;;10.10;6.30;;;;;;;0.95;76.03;98998.12;130608;1268;97994;-72
2022/04/02 07:22:01;;;;;;;10.30;6.20;;;;;;;0.96;75.94;99001.93;130367;1268;108668;-72
2022/04/02 07:25:08;;;;;;;32.70;22.20;;;;;;;1.00;76.52;98999.67;130518;1268;108270;-72
2022/04/02 07:28:11;;;;;;;13.00;9.00;;;;;;;1.04;75.81;99002.88;130574;1268;108714;-74
2022/04/02 07:31:14;;;;;;;42.00;25.30;;;;;;;0.95;75.56;99003.19;130574;1268;108637;-75
2022/04/02 07:34:16;;;;;;;20.70;13.30;;;;;;;0.93;75.67;99005.52;130596;1268;97956;-75
2022/04/02 07:37:31;;;;;;;15.30;8.30;;;;;;;0.82;75.85;99007.06;130513;1267;97975;-77
2022/04/02 07:40:41;;;;;;;17.50;10.90;;;;;;;0.83;75.61;99006.98;130618;1267;108595;-72
2022/04/02 07:43:51;;;;;;;9.70;6.80;;;;;;;0.86;75.84;99011.61;130545;1268;108758;-72
2022/04/02 07:46:58;;;;;;;15.40;11.10;;;;;;;0.99;75.65;99010.78;130662;1266;107644;-71
2022/04/02 07:50:04;;;;;;;11.10;6.30;;;;;;;1.13;74.86;99009.43;130587;1267;107700;-72
2022/04/02 07:53:12;;;;;;;15.80;8.30;;;;;;;1.26;74.64;99013.70;130464;1267;108808;-71
2022/04/02 07:56:21;;;;;;;8.60;5.70;;;;;;;1.36;75.04;99018.47;130944;1268;108654;-73
2022/04/02 07:59:34;;;;;;;26.80;14.20;;;;;;;1.52;74.49;99014.76;130428;1268;108664;-76
2022/04/02 08:02:42;;;;;;;14.50;10.50;;;;;;;1.60;73.90;99014.14;130238;1268;108635;-71
2022/04/02 08:05:47;;;;;;;14.10;9.30;;;;;;;1.57;74.48;99012.91;130469;1268;108769;-71
2022/04/02 08:08:50;;;;;;;10.20;6.50;;;;;;;1.66;74.55;99010.48;130344;1268;107418;-75
2022/04/02 08:11:53;;;;;;;8.50;6.00;;;;;;;1.66;74.01;99012.02;130768;1268;108648;-74
2022/04/02 08:14:56;;;;;;;11.50;7.30;;;;;;;1.78;74.69;99010.28;130567;1268;108633;-72
2022/04/02 08:18:01;;;;;;;11.10;7.90;;;;;;;1.81;73.71;99013.27;130551;1268;99245;-72
2022/04/02 08:21:04;;;;;;;9.30;5.40;;;;;;;1.80;73.91;99018.95;130566;1268;107704;-72
2022/04/02 08:24:10;;;;;;;13.20;8.70;;;;;;;1.76;74.03;99017.65;130578;1268;108664;-74
2022/04/02 08:27:31;;;;;;;11.70;7.80;;;;;;;1.85;74.01;99022.39;130597;1268;108656;-75
2022/04/02 08:30:34;;;;;;;9.90;7.10;;;;;;;1.84;73.13;99026.65;130518;1268;108655;-76
2022/04/02 08:33:51;;;;;;;9.60;5.60;;;;;;;1.90;72.93;99024.39;130557;1268;108662;-72
2022/04/02 08:37:06;;;;;;;8.90;6.20;;;;;;;1.86;72.58;99024.86;130677;1268;108585;-74
2022/04/02 08:40:26;;;;;;;11.70;7.60;;;;;;;1.92;72.48;99027.75;130686;1267;108654;-72
2022/04/02 08:43:52;;;;;;;12.40;6.70;;;;;;;1.93;72.68;99025.38;130618;1267;108625;-70
2022/04/02 08:47:12;;;;;;;26.10;15.00;;;;;;;2.09;73.08;99022.98;130236;1267;106582;-68
2022/04/02 08:50:16;;;;;;;9.70;6.20;;;;;;;2.35;72.77;99022.16;130415;1266;106653;-71
2022/04/02 08:53:22;;;;;;;10.10;6.00;;;;;;;2.54;71.58;99023.77;130455;1268;106977;-69
2022/04/02 08:56:28;;;;;;;10.60;6.80;;;;;;;2.45;70.80;99028.75;130386;1268;108768;-70
2022/04/02 08:59:38;;;;;;;10.70;6.20;;;;;;;2.35;71.11;99034.80;130329;1268;108685;-71
2022/04/02 09:03:01;;;;;;;10.00;6.40;;;;;;;2.28;71.89;99037.83;130561;1267;108635;-72
2022/04/02 09:06:27;;;;;;;10.10;6.40;;;;;;;2.21;71.42;99035.36;130694;1266;109106;-72
2022/04/02 09:10:09;;;;;;;13.70;7.80;;;;;;;2.27;71.62;99038.86;130639;1268;106635;-71
2022/04/02 09:13:48;;;;;;;64.60;43.10;;;;;;;2.57;72.17;99038.73;130491;1267;109649;-72
2022/04/02 09:17:02;;;;;;;15.30;8.60;;;;;;;2.75;71.82;99039.30;130514;1268;108664;-71
2022/04/02 09:20:20;;;;;;;13.00;8.20;;;;;;;2.78;70.79;99041.50;130700;1268;108790;-71
2022/04/02 09:23:42;;;;;;;12.30;7.50;;;;;;;2.74;71.56;99046.37;130540;1268;108664;-70
2022/04/02 09:27:30;;;;;;;9.70;6.00;;;;;;;2.91;70.96;99044.89;130676;1268;108698;-70
2022/04/02 09:31:02;;;;;;;12.80;8.50;;;;;;;2.83;70.97;99049.86;130397;1268;108562;-71
2022/04/02 09:34:29;;;;;;;16.40;10.20;;;;;;;2.99;70.67;99051.41;130518;1268;108417;-71
2022/04/02 09:37:57;;;;;;;19.20;11.60;;;;;;;3.03;70.64;99047.78;130511;1267;106699;-71
2022/04/02 09:41:14;;;;;;;13.10;8.60;;;;;;;3.17;70.25;99049.55;130498;1268;107902;-72
2022/04/02 09:44:43;;;;;;;12.00;8.60;;;;;;;3.35;70.30;99051.80;130411;1268;108660;-72
2022/04/02 09:48:08;;;;;;;14.00;8.10;;;;;;;3.43;70.13;99050.00;130517;1267;108710;-72
2022/04/02 09:51:14;;;;;;;14.10;8.10;;;;;;;3.55;70.52;99050.21;130465;1267;108856;-72
2022/04/02 09:54:30;;;;;;;13.10;7.60;;;;;;;3.73;69.25;99052.22;130492;1266;108686;-71
2022/04/02 09:57:42;;;;;;;11.70;6.90;;;;;;;3.83;69.21;99051.55;130523;1268;107665;-73
2022/04/02 10:01:02;;;;;;;12.20;6.80;;;;;;;3.84;68.15;99058.33;130498;1266;108638;-72
2022/04/02 10:04:30;;;;;;;24.20;13.70;;;;;;;3.86;69.35;99059.83;130496;1268;108657;-72
2022/04/02 10:07:40;;;;;;;13.80;9.10;;;;;;;4.01;68.88;99057.50;130518;1268;108704;-72
2022/04/02 10:10:46;;;;;;;13.70;9.30;;;;;;;4.07;67.96;99057.64;130447;1268;108660;-73
2022/04/02 10:13:49;;;;;;;13.00;8.70;;;;;;;4.04;67.69;99060.02;130535;1268;108701;-71
2022/04/02 10:16:55;;;;;;;13.40;7.60;;;;;;;4.09;67.21;99062.87;130501;1268;108843;-71
2022/04/02 10:19:59;;;;;;;11.10;6.80;;;;;;;4.19;68.71;99059.29;130546;1268;108170;-73
2022/04/02 10:23:12;;;;;;;9.40;6.50;;;;;;;4.53;68.61;99050.92;130627;1268;108867;-70
2022/04/02 10:26:17;;;;;;;9.90;7.30;;;;;;;4.75;68.38;99049.92;130525;1268;108687;-71
2022/04/02 10:29:46;;;;;;;11.60;6.80;;;;;;;5.09;69.36;99044.52;130509;1268;108669;-75
2022/04/02 10:33:26;;;;;;;9.70;6.70;;;;;;;5.32;66.59;99047.98;130464;1268;107695;-73
2022/04/02 10:36:23;;;;;;;10.20;7.10;;;;;;;5.34;67.14;99042.98;130540;1268;108518;-71
2022/04/02 10:39:26;;;;;;;11.50;7.80;;;;;;;5.51;68.02;99043.25;130478;1268;97965;-73
2022/04/02 10:42:33;;;;;;;11.70;8.00;;;;;;;5.73;66.82;99045.90;130502;1268;107914;-72
2022/04/02 10:45:39;;;;;;;16.00;10.40;;;;;;;5.68;65.03;99047.14;130556;1268;108624;-72
2022/04/02 10:48:54;;;;;;;11.30;7.60;;;;;;;5.58;65.42;99049.87;130496;1268;108672;-72
2022/04/02 10:52:01;;;;;;;12.20;9.00;;;;;;;5.65;65.54;99052.48;130511;1266;108749;-73
2022/04/02 10:55:05;;;;;;;13.50;8.90;;;;;;;5.67;66.84;99048.02;130391;1268;108655;-72
2022/04/02 10:58:12;;;;;;;14.50;8.60;;;;;;;5.82;65.36;99057.02;130550;1267;108715;-72
2022/04/02 11:01:18;;;;;;;11.10;8.30;;;;;;;5.77;66.01;99055.23;132416;1258;108148;-73
2022/04/02 11:04:27;;;;;;;9.80;7.50;;;;;;;5.76;64.74;99053.59;130380;1267;106859;-73
2022/04/02 11:07:34;;;;;;;10.80;8.20;;;;;;;5.68;65.04;99058.52;130401;1267;108962;-74
2022/04/02 11:10:38;;;;;;;12.00;8.20;;;;;;;5.61;65.54;99054.98;130559;1266;108813;-73
2022/04/02 11:13:43;;;;;;;12.00;8.30;;;;;;;5.67;65.89;99061.95;130517;1268;108761;-73
2022/04/02 11:16:46;;;;;;;11.20;7.90;;;;;;;5.88;66.54;99062.76;130515;1267;108653;-72
2022/04/02 11:19:56;;;;;;;11.70;8.30;;;;;;;6.04;66.17;99059.20;130526;1268;108649;-72
2022/04/02 11:23:09;;;;;;;12.60;8.80;;;;;;;6.15;65.06;99058.15;130480;1267;108739;-72
2022/04/02 11:26:19;;;;;;;12.90;8.20;;;;;;;6.13;65.34;99062.21;130443;1268;108649;-72
2022/04/02 11:29:24;;;;;;;12.10;8.80;;;;;;;6.19;64.67;99062.19;130518;1267;108677;-72
2022/04/02 11:32:28;;;;;;;16.50;10.90;;;;;;;6.26;66.01;99060.91;130532;1268;108740;-72
2022/04/02 11:35:35;;;;;;;15.20;8.60;;;;;;;6.42;65.54;99057.75;130548;1268;107570;-72
2022/04/02 11:38:45;;;;;;;15.10;10.10;;;;;;;6.38;65.05;99054.11;130515;1267;108686;-72
2022/04/02 11:41:54;;;;;;;17.00;9.60;;;;;;;6.43;65.02;99057.61;130612;1268;107434;-73
2022/04/02 11:44:57;;;;;;;13.80;8.50;;;;;;;6.55;64.91;99061.90;130470;1265;108653;-74
2022/04/02 11:48:09;;;;;;;11.80;8.30;;;;;;;6.54;65.04;99059.17;130484;1265;107665;-74
2022/04/02 11:51:14;;;;;;;12.90;8.50;;;;;;;6.69;65.04;99058.34;130576;1265;107679;-73
2022/04/02 11:54:17;;;;;;;11.70;8.40;;;;;;;6.69;64.07;99054.63;130812;1265;108619;-72
2022/04/02 11:57:20;;;;;;;11.30;8.10;;;;;;;6.62;65.07;99056.71;130554;1267;108910;-72
2022/04/02 12:00:26;;;;;;;22.30;17.10;;;;;;;6.71;63.70;99054.66;130494;1268;108627;-71
2022/04/02 12:03:30;;;;;;;64.00;42.40;;;;;;;6.63;62.94;99053.86;130508;1267;109419;-73
2022/04/02 12:06:35;;;;;;;20.60;13.30;;;;;;;6.73;64.83;99055.64;130506;1267;108716;-77
2022/04/02 12:09:50;;;;;;;12.60;8.70;;;;;;;6.93;64.55;99053.28;130597;1268;107812;-76
2022/04/02 12:12:56;;;;;;;13.80;9.60;;;;;;;7.13;64.44;99054.19;130548;1268;108677;-75
2022/04/02 12:16:05;;;;;;;12.10;7.90;;;;;;;7.27;64.14;99050.58;130568;1267;109118;-73
2022/04/02 12:19:12;;;;;;;10.40;7.30;;;;;;;7.35;63.80;99051.70;130507;1265;108890;-75
2022/04/02 12:22:25;;;;;;;9.70;7.30;;;;;;;7.45;63.94;99051.69;130413;1266;229797;-75
2022/04/02 12:25:29;;;;;;;11.60;7.50;;;;;;;7.61;64.18;99046.15;130470;1267;108650;-76
2022/04/02 12:28:45;;;;;;;9.70;6.70;;;;;;;7.65;62.12;99043.69;130565;1268;108766;-72
2022/04/02 12:31:50;;;;;;;11.30;8.20;;;;;;;7.58;62.94;99038.88;130516;1268;108770;-74
2022/04/02 12:34:57;;;;;;;12.20;8.40;;;;;;;7.54;63.31;99042.46;130521;1266;107438;-74
2022/04/02 12:38:05;;;;;;;14.20;8.30;;;;;;;7.53;63.81;99041.11;130516;1268;108740;-79
2022/04/02 12:41:20;;;;;;;14.30;9.00;;;;;;;7.71;63.99;99044.56;130504;1268;108773;-73
2022/04/02 12:44:24;;;;;;;11.10;7.40;;;;;;;7.82;62.92;99047.56;130546;1267;106634;-72
2022/04/02 12:47:28;;;;;;;11.80;7.50;;;;;;;7.67;61.77;99044.95;130600;1268;108755;-74
2022/04/02 12:50:32;;;;;;;12.40;8.30;;;;;;;7.72;63.61;99047.89;130734;1268;108687;-78
2022/04/02 12:53:36;;;;;;;12.30;8.30;;;;;;;7.90;63.60;99048.16;130489;1268;108697;-74
2022/04/02 12:56:39;;;;;;;12.50;7.40;;;;;;;7.92;62.30;99048.99;130550;1266;106884;-73
2022/04/02 12:59:51;;;;;;;10.40;7.10;;;;;;;7.78;62.12;99043.60;130530;1268;98389;-74
2022/04/02 13:02:57;;;;;;;10.70;8.00;;;;;;;7.68;62.44;99043.97;130471;1268;108643;-74
2022/04/02 13:06:02;;;;;;;123.40;69.50;;;;;;;7.60;62.55;99042.19;130616;1268;108826;-72
2022/04/02 13:09:12;;;;;;;181.70;103.20;;;;;;;7.55;61.54;99047.34;130596;1267;108551;-72
2022/04/02 13:12:21;;;;;;;62.10;34.10;;;;;;;7.45;62.27;99047.24;130951;1268;108406;-73
2022/04/02 13:15:26;;;;;;;21.20;12.80;;;;;;;7.47;62.20;99050.07;130675;1268;108698;-73
2022/04/02 13:22:00;;;;;;;15.30;9.80;;;;;;;7.37;61.62;99046.38;130539;1267;108616;-74
2022/04/02 13:25:13;;;;;;;16.20;10.30;;;;;;;7.37;61.91;99047.76;130680;1268;108777;-77
2022/04/02 13:28:37;;;;;;;19.30;11.20;;;;;;;7.44;62.10;99048.90;130694;1268;108839;-74
2022/04/02 13:32:01;;;;;;;18.50;10.90;;;;;;;7.57;61.82;99053.44;130539;1265;108283;-75
2022/04/02 13:35:12;;;;;;;16.40;11.00;;;;;;;7.62;60.61;99056.59;130587;1268;108737;-75
2022/04/02 13:38:49;;;;;;;19.80;12.10;;;;;;;7.60;61.07;99058.02;130545;1265;108635;-75
2022/04/02 13:41:55;;;;;;;19.30;12.60;;;;;;;7.68;61.60;99062.69;130512;1266;107509;-76
2022/04/02 13:45:01;;;;;;;16.90;11.30;;;;;;;7.73;61.49;99064.69;130568;1266;108739;-71
2022/04/02 13:48:06;;;;;;;19.30;12.20;;;;;;;7.70;60.80;99063.41;130588;1268;108465;-74
2022/04/02 13:51:11;;;;;;;56.30;30.80;;;;;;;7.70;61.21;99066.70;130625;1268;109001;-75
2022/04/02 13:54:23;;;;;;;42.20;23.10;;;;;;;7.81;61.38;99070.14;130747;1268;108697;-73
2022/04/02 13:57:31;;;;;;;22.00;13.90;;;;;;;7.96;61.24;99070.50;130749;1266;107633;-74
2022/04/02 14:00:38;;;;;;;21.00;13.40;;;;;;;8.08;61.19;99070.29;130597;1268;108841;-75
2022/04/02 14:03:46;;;;;;;22.20;13.30;;;;;;;8.23;61.21;99069.91;130729;1268;108618;-77
2022/04/02 14:06:55;;;;;;;54.40;32.50;;;;;;;8.31;60.26;99068.52;130581;1268;108927;-77
2022/04/02 14:10:02;;;;;;;32.30;19.00;;;;;;;8.36;61.03;99069.73;130507;1268;108683;-73
2022/04/02 14:13:15;;;;;;;42.40;27.40;;;;;;;8.40;60.15;99063.50;130639;1267;108828;-74
2022/04/02 14:16:24;;;;;;;39.80;23.90;;;;;;;8.40;60.49;99068.53;130631;1267;108871;-76
2022/04/02 14:19:35;;;;;;;27.40;16.10;;;;;;;8.45;60.34;99063.20;130444;1267;109073;-77
2022/04/02 14:22:58;;;;;;;21.90;12.80;;;;;;;8.42;60.14;99065.48;130580;1268;108579;-78
2022/04/02 14:26:34;;;;;;;22.60;13.20;;;;;;;8.37;60.18;99062.55;130583;1268;108180;-76
2022/04/02 14:29:56;;;;;;;22.80;12.60;;;;;;;8.33;59.37;99068.70;130685;1268;109048;-78